Aspers, Pennsylvania
Current Conditions -  °F | °C
As of 2:53 AM on Tuesday 27 Jan 2015 (Local Time) from KTHV Reporting Station
Light Snow Light Snow  
Wind Chill: 17°   Ceiling: 2500
Heat Index: 25°   Visibility: 6mi
Dew Point: 21°   Wind: 7mph
Humidity: 85%   Direction: 330°NNW
Pressure: 29.75"   Gusts: NA
Location:  39.98°N, 77.22°W
Report Text: KTHV 270753Z AUTO 33006KT 6SM -SN BR OVC025 M04/M06 A2975 RMK AO2 SNB41 SLP082 P0000 T10391061
Loading
Personal Weather Stations






























Interactive Weather Map New forecast layout! Learn more

10-Day Weather Forecast

Advertisements
Track Severe Weather on mobile